sensor_id;sensor_type;location;lat;lon;timestamp;P1;durP1;ratioP1;P2;durP2;ratioP2
10823;SDS011;39116;59.332;18.034;2024-03-23T00:55:07;14.52;;;3.13;;
10823;SDS011;39116;59.332;18.034;2024-03-23T00:57:28;11.65;;;3.03;;
10823;SDS011;39116;59.332;18.034;2024-03-23T00:59:50;9.63;;;2.90;;
10823;SDS011;39116;59.332;18.034;2024-03-23T01:02:10;14.07;;;2.85;;
10823;SDS011;39116;59.332;18.034;2024-03-23T01:04:32;14.30;;;2.75;;
10823;SDS011;39116;59.332;18.034;2024-03-23T01:06:52;15.15;;;2.97;;
10823;SDS011;39116;59.332;18.034;2024-03-23T01:09:14;13.45;;;3.15;;
10823;SDS011;39116;59.332;18.034;2024-03-23T01:11:36;13.98;;;3.00;;
10823;SDS011;39116;59.332;18.034;2024-03-23T01:13:57;11.00;;;2.58;;
10823;SDS011;39116;59.332;18.034;2024-03-23T01:16:18;10.05;;;2.63;;
10823;SDS011;39116;59.332;18.034;2024-03-23T01:18:40;12.85;;;3.08;;
10823;SDS011;39116;59.332;18.034;2024-03-23T01:21:00;13.48;;;3.08;;
10823;SDS011;39116;59.332;18.034;2024-03-23T01:23:22;10.45;;;2.90;;
10823;SDS011;39116;59.332;18.034;2024-03-23T01:25:42;9.30;;;2.95;;
10823;SDS011;39116;59.332;18.034;2024-03-23T01:28:05;10.27;;;2.30;;
10823;SDS011;39116;59.332;18.034;2024-03-23T01:30:26;11.05;;;3.08;;
10823;SDS011;39116;59.332;18.034;2024-03-23T01:32:48;10.65;;;3.08;;
10823;SDS011;39116;59.332;18.034;2024-03-23T01:35:08;13.65;;;2.83;;
10823;SDS011;39116;59.332;18.034;2024-03-23T01:37:30;14.02;;;3.08;;
10823;SDS011;39116;59.332;18.034;2024-03-23T01:39:51;12.25;;;2.78;;
10823;SDS011;39116;59.332;18.034;2024-03-23T01:42:12;12.60;;;2.50;;
10823;SDS011;39116;59.332;18.034;2024-03-23T01:44:34;9.80;;;2.83;;
10823;SDS011;39116;59.332;18.034;2024-03-23T01:46:56;9.48;;;2.70;;
10823;SDS011;39116;59.332;18.034;2024-03-23T01:49:17;12.20;;;2.38;;
10823;SDS011;39116;59.332;18.034;2024-03-23T01:51:38;7.20;;;2.15;;
10823;SDS011;39116;59.332;18.034;2024-03-23T01:53:59;11.30;;;2.78;;
10823;SDS011;39116;59.332;18.034;2024-03-23T01:56:23;14.35;;;3.03;;
10823;SDS011;39116;59.332;18.034;2024-03-23T01:58:43;11.65;;;2.55;;
10823;SDS011;39116;59.332;18.034;2024-03-23T02:03:37;6.40;;;2.20;;
10823;SDS011;39116;59.332;18.034;2024-03-23T02:05:59;14.07;;;2.67;;
10823;SDS011;39116;59.332;18.034;2024-03-23T02:08:20;9.90;;;2.28;;
10823;SDS011;39116;59.332;18.034;2024-03-23T02:10:42;7.25;;;2.58;;
10823;SDS011;39116;59.332;18.034;2024-03-23T02:13:02;10.77;;;2.47;;
10823;SDS011;39116;59.332;18.034;2024-03-23T02:15:24;13.98;;;3.05;;
10823;SDS011;39116;59.332;18.034;2024-03-23T02:17:45;11.82;;;2.67;;
10823;SDS011;39116;59.332;18.034;2024-03-23T02:20:08;9.15;;;2.35;;
10823;SDS011;39116;59.332;18.034;2024-03-23T02:22:35;9.90;;;2.88;;
10823;SDS011;39116;59.332;18.034;2024-03-23T02:24:58;14.00;;;2.53;;
10823;SDS011;39116;59.332;18.034;2024-03-23T02:27:18;7.93;;;2.47;;
10823;SDS011;39116;59.332;18.034;2024-03-23T02:29:40;10.45;;;2.47;;
10823;SDS011;39116;59.332;18.034;2024-03-23T02:32:01;13.55;;;2.42;;
10823;SDS011;39116;59.332;18.034;2024-03-23T02:34:22;13.55;;;2.85;;
10823;SDS011;39116;59.332;18.034;2024-03-23T02:36:43;9.23;;;2.30;;
10823;SDS011;39116;59.332;18.034;2024-03-23T02:39:05;7.80;;;2.30;;
10823;SDS011;39116;59.332;18.034;2024-03-23T02:41:27;13.32;;;2.72;;
10823;SDS011;39116;59.332;18.034;2024-03-23T02:43:49;13.30;;;2.58;;
10823;SDS011;39116;59.332;18.034;2024-03-23T02:46:09;15.32;;;2.78;;
10823;SDS011;39116;59.332;18.034;2024-03-23T02:48:31;14.88;;;2.95;;
10823;SDS011;39116;59.332;18.034;2024-03-23T02:50:51;9.52;;;2.38;;
10823;SDS011;39116;59.332;18.034;2024-03-23T02:53:14;11.07;;;2.35;;
10823;SDS011;39116;59.332;18.034;2024-03-23T02:55:35;6.85;;;2.40;;
10823;SDS011;39116;59.332;18.034;2024-03-23T02:57:58;10.10;;;3.00;;
10823;SDS011;39116;59.332;18.034;2024-03-23T03:00:21;10.85;;;2.50;;
10823;SDS011;39116;59.332;18.034;2024-03-23T03:02:43;9.57;;;2.60;;
10823;SDS011;39116;59.332;18.034;2024-03-23T03:05:04;12.10;;;2.97;;
10823;SDS011;39116;59.332;18.034;2024-03-23T03:07:26;8.50;;;2.22;;
10823;SDS011;39116;59.332;18.034;2024-03-23T03:09:46;11.75;;;3.05;;
10823;SDS011;39116;59.332;18.034;2024-03-23T03:12:08;11.70;;;2.50;;
10823;SDS011;39116;59.332;18.034;2024-03-23T03:14:30;18.85;;;2.97;;
10823;SDS011;39116;59.332;18.034;2024-03-23T03:16:52;17.15;;;3.50;;
10823;SDS011;39116;59.332;18.034;2024-03-23T03:19:13;11.07;;;3.05;;
10823;SDS011;39116;59.332;18.034;2024-03-23T03:21:36;12.60;;;2.70;;
10823;SDS011;39116;59.332;18.034;2024-03-23T03:23:57;13.45;;;3.00;;
10823;SDS011;39116;59.332;18.034;2024-03-23T03:26:18;17.63;;;3.22;;
10823;SDS011;39116;59.332;18.034;2024-03-23T03:28:39;15.25;;;2.97;;
10823;SDS011;39116;59.332;18.034;2024-03-23T03:31:02;13.63;;;3.07;;
10823;SDS011;39116;59.332;18.034;2024-03-23T03:33:23;12.18;;;3.22;;
10823;SDS011;39116;59.332;18.034;2024-03-23T03:35:44;12.27;;;2.50;;
10823;SDS011;39116;59.332;18.034;2024-03-23T03:38:06;9.80;;;2.60;;
10823;SDS011;39116;59.332;18.034;2024-03-23T03:40:27;17.67;;;2.97;;
10823;SDS011;39116;59.332;18.034;2024-03-23T03:42:48;12.27;;;3.03;;
10823;SDS011;39116;59.332;18.034;2024-03-23T03:45:10;13.35;;;3.50;;
10823;SDS011;39116;59.332;18.034;2024-03-23T03:47:32;9.65;;;3.00;;
10823;SDS011;39116;59.332;18.034;2024-03-23T03:49:53;18.15;;;3.42;;
10823;SDS011;39116;59.332;18.034;2024-03-23T03:52:14;15.68;;;3.30;;
10823;SDS011;39116;59.332;18.034;2024-03-23T03:54:36;18.67;;;3.75;;
10823;SDS011;39116;59.332;18.034;2024-03-23T03:56:56;13.73;;;2.58;;
10823;SDS011;39116;59.332;18.034;2024-03-23T03:59:18;17.40;;;3.05;;
10823;SDS011;39116;59.332;18.034;2024-03-23T04:01:39;16.50;;;3.22;;
10823;SDS011;39116;59.332;18.034;2024-03-23T04:04:02;19.27;;;3.28;;
10823;SDS011;39116;59.332;18.034;2024-03-23T04:06:23;13.80;;;3.05;;
10823;SDS011;39116;59.332;18.034;2024-03-23T04:08:44;12.73;;;3.03;;
10823;SDS011;39116;59.332;18.034;2024-03-23T04:11:05;17.45;;;2.92;;
10823;SDS011;39116;59.332;18.034;2024-03-23T04:13:27;12.63;;;3.42;;
10823;SDS011;39116;59.332;18.034;2024-03-23T04:15:47;16.13;;;3.92;;
10823;SDS011;39116;59.332;18.034;2024-03-23T04:18:09;13.48;;;3.17;;
10823;SDS011;39116;59.332;18.034;2024-03-23T04:20:31;15.55;;;3.28;;
10823;SDS011;39116;59.332;18.034;2024-03-23T04:22:53;14.33;;;2.60;;
10823;SDS011;39116;59.332;18.034;2024-03-23T04:25:14;16.27;;;3.05;;
10823;SDS011;39116;59.332;18.034;2024-03-23T04:27:36;12.90;;;2.63;;
10823;SDS011;39116;59.332;18.034;2024-03-23T04:29:56;18.40;;;3.90;;
10823;SDS011;39116;59.332;18.034;2024-03-23T04:32:18;15.07;;;2.75;;
10823;SDS011;39116;59.332;18.034;2024-03-23T04:34:39;10.23;;;2.57;;
10823;SDS011;39116;59.332;18.034;2024-03-23T04:37:02;18.02;;;2.97;;
10823;SDS011;39116;59.332;18.034;2024-03-23T04:39:24;14.30;;;3.83;;
10823;SDS011;39116;59.332;18.034;2024-03-23T04:41:46;19.87;;;3.50;;
10823;SDS011;39116;59.332;18.034;2024-03-23T04:44:08;19.50;;;3.50;;
10823;SDS011;39116;59.332;18.034;2024-03-23T04:46:30;17.90;;;3.75;;
10823;SDS011;39116;59.332;18.034;2024-03-23T04:48:52;11.77;;;2.95;;
10823;SDS011;39116;59.332;18.034;2024-03-23T04:51:19;19.05;;;3.08;;
10823;SDS011;39116;59.332;18.034;2024-03-23T04:53:43;18.50;;;3.33;;
10823;SDS011;39116;59.332;18.034;2024-03-23T04:56:04;19.63;;;3.38;;
10823;SDS011;39116;59.332;18.034;2024-03-23T04:58:25;15.65;;;3.10;;
10823;SDS011;39116;59.332;18.034;2024-03-23T05:00:47;14.20;;;3.70;;
10823;SDS011;39116;59.332;18.034;2024-03-23T05:03:07;18.73;;;3.80;;
10823;SDS011;39116;59.332;18.034;2024-03-23T05:05:29;17.30;;;3.17;;
10823;SDS011;39116;59.332;18.034;2024-03-23T05:07:49;17.83;;;3.90;;
10823;SDS011;39116;59.332;18.034;2024-03-23T05:10:12;19.33;;;3.40;;
10823;SDS011;39116;59.332;18.034;2024-03-23T05:12:33;16.75;;;3.17;;
10823;SDS011;39116;59.332;18.034;2024-03-23T05:14:55;14.45;;;3.30;;
10823;SDS011;39116;59.332;18.034;2024-03-23T05:17:16;16.97;;;3.37;;
10823;SDS011;39116;59.332;18.034;2024-03-23T05:19:37;19.23;;;4.47;;
10823;SDS011;39116;59.332;18.034;2024-03-23T05:21:58;19.17;;;3.63;;
10823;SDS011;39116;59.332;18.034;2024-03-23T05:24:19;16.43;;;3.40;;
10823;SDS011;39116;59.332;18.034;2024-03-23T05:26:41;15.00;;;2.80;;
10823;SDS011;39116;59.332;18.034;2024-03-23T05:29:03;12.40;;;3.93;;
10823;SDS011;39116;59.332;18.034;2024-03-23T05:31:24;14.43;;;3.57;;
10823;SDS011;39116;59.332;18.034;2024-03-23T05:33:45;15.07;;;2.92;;
10823;SDS011;39116;59.332;18.034;2024-03-23T05:36:08;17.27;;;3.33;;
10823;SDS011;39116;59.332;18.034;2024-03-23T05:38:31;20.75;;;4.68;;
10823;SDS011;39116;59.332;18.034;2024-03-23T05:40:55;15.40;;;3.23;;
10823;SDS011;39116;59.332;18.034;2024-03-23T05:43:18;18.87;;;3.50;;
10823;SDS011;39116;59.332;18.034;2024-03-23T05:45:40;19.52;;;3.92;;
10823;SDS011;39116;59.332;18.034;2024-03-23T05:48:02;20.35;;;3.55;;
10823;SDS011;39116;59.332;18.034;2024-03-23T05:50:22;13.40;;;3.17;;
10823;SDS011;39116;59.332;18.034;2024-03-23T05:52:44;14.43;;;3.33;;
10823;SDS011;39116;59.332;18.034;2024-03-23T05:55:05;23.23;;;3.83;;
10823;SDS011;39116;59.332;18.034;2024-03-23T05:57:26;25.13;;;3.53;;
10823;SDS011;39116;59.332;18.034;2024-03-23T05:59:48;19.83;;;3.80;;
10823;SDS011;39116;59.332;18.034;2024-03-23T06:02:10;11.40;;;2.80;;
10823;SDS011;39116;59.332;18.034;2024-03-23T06:04:30;14.60;;;3.60;;
10823;SDS011;39116;59.332;18.034;2024-03-23T06:06:52;23.77;;;4.17;;
10823;SDS011;39116;59.332;18.034;2024-03-23T06:09:13;18.52;;;3.10;;
10823;SDS011;39116;59.332;18.034;2024-03-23T06:11:34;18.13;;;3.13;;
10823;SDS011;39116;59.332;18.034;2024-03-23T06:13:55;17.00;;;3.70;;
10823;SDS011;39116;59.332;18.034;2024-03-23T06:16:18;16.90;;;3.17;;
10823;SDS011;39116;59.332;18.034;2024-03-23T06:18:43;13.15;;;3.10;;
10823;SDS011;39116;59.332;18.034;2024-03-23T06:21:05;15.35;;;3.15;;
10823;SDS011;39116;59.332;18.034;2024-03-23T06:23:33;18.90;;;3.50;;
10823;SDS011;39116;59.332;18.034;2024-03-23T06:25:54;16.52;;;3.28;;
10823;SDS011;39116;59.332;18.034;2024-03-23T06:28:15;20.33;;;3.90;;
10823;SDS011;39116;59.332;18.034;2024-03-23T06:30:38;14.55;;;3.30;;
10823;SDS011;39116;59.332;18.034;2024-03-23T06:33:00;12.27;;;3.28;;
10823;SDS011;39116;59.332;18.034;2024-03-23T06:35:21;20.25;;;4.03;;
10823;SDS011;39116;59.332;18.034;2024-03-23T06:37:42;18.83;;;4.40;;
10823;SDS011;39116;59.332;18.034;2024-03-23T06:40:04;21.95;;;3.97;;
10823;SDS011;39116;59.332;18.034;2024-03-23T06:42:28;17.30;;;3.63;;
10823;SDS011;39116;59.332;18.034;2024-03-23T06:44:50;15.20;;;3.63;;
10823;SDS011;39116;59.332;18.034;2024-03-23T06:47:10;17.80;;;2.97;;
10823;SDS011;39116;59.332;18.034;2024-03-23T06:49:33;20.55;;;4.03;;
10823;SDS011;39116;59.332;18.034;2024-03-23T06:51:54;20.25;;;4.60;;
10823;SDS011;39116;59.332;18.034;2024-03-23T06:54:16;24.75;;;4.35;;
10823;SDS011;39116;59.332;18.034;2024-03-23T06:56:36;16.10;;;3.58;;
10823;SDS011;39116;59.332;18.034;2024-03-23T06:58:58;15.10;;;3.72;;
10823;SDS011;39116;59.332;18.034;2024-03-23T07:01:19;19.15;;;3.85;;
10823;SDS011;39116;59.332;18.034;2024-03-23T07:03:41;12.90;;;3.70;;
10823;SDS011;39116;59.332;18.034;2024-03-23T07:06:03;14.13;;;3.40;;
10823;SDS011;39116;59.332;18.034;2024-03-23T07:08:25;13.02;;;3.60;;
10823;SDS011;39116;59.332;18.034;2024-03-23T07:10:45;16.02;;;4.03;;
10823;SDS011;39116;59.332;18.034;2024-03-23T07:13:07;19.35;;;4.22;;
10823;SDS011;39116;59.332;18.034;2024-03-23T07:15:28;15.65;;;3.88;;
10823;SDS011;39116;59.332;18.034;2024-03-23T07:17:49;14.85;;;3.50;;
10823;SDS011;39116;59.332;18.034;2024-03-23T07:20:10;13.35;;;3.83;;
10823;SDS011;39116;59.332;18.034;2024-03-23T07:22:34;11.38;;;2.72;;
10823;SDS011;39116;59.332;18.034;2024-03-23T07:24:55;21.75;;;4.13;;
10823;SDS011;39116;59.332;18.034;2024-03-23T07:27:17;16.75;;;3.47;;
10823;SDS011;39116;59.332;18.034;2024-03-23T07:29:37;14.88;;;3.67;;
10823;SDS011;39116;59.332;18.034;2024-03-23T07:31:59;15.55;;;3.35;;
10823;SDS011;39116;59.332;18.034;2024-03-23T07:34:19;19.45;;;3.83;;
10823;SDS011;39116;59.332;18.034;2024-03-23T07:36:41;19.73;;;3.97;;
10823;SDS011;39116;59.332;18.034;2024-03-23T07:39:03;14.57;;;3.90;;
10823;SDS011;39116;59.332;18.034;2024-03-23T07:41:25;16.35;;;3.22;;
10823;SDS011;39116;59.332;18.034;2024-03-23T07:43:47;13.88;;;4.03;;
10823;SDS011;39116;59.332;18.034;2024-03-23T07:46:10;15.52;;;3.35;;
10823;SDS011;39116;59.332;18.034;2024-03-23T07:48:32;19.13;;;4.20;;
10823;SDS011;39116;59.332;18.034;2024-03-23T07:51:00;21.15;;;3.42;;
10823;SDS011;39116;59.332;18.034;2024-03-23T07:53:21;15.45;;;3.85;;
10823;SDS011;39116;59.332;18.034;2024-03-23T07:55:47;14.30;;;2.83;;
10823;SDS011;39116;59.332;18.034;2024-03-23T07:58:12;14.77;;;3.45;;
10823;SDS011;39116;59.332;18.034;2024-03-23T08:00:33;22.08;;;3.88;;
10823;SDS011;39116;59.332;18.034;2024-03-23T08:02:54;14.77;;;3.50;;
10823;SDS011;39116;59.332;18.034;2024-03-23T08:05:16;19.73;;;3.63;;
10823;SDS011;39116;59.332;18.034;2024-03-23T08:07:37;16.85;;;4.10;;
10823;SDS011;39116;59.332;18.034;2024-03-23T08:09:58;14.50;;;3.67;;
10823;SDS011;39116;59.332;18.034;2024-03-23T08:12:22;13.02;;;3.28;;
10823;SDS011;39116;59.332;18.034;2024-03-23T08:14:44;14.05;;;3.70;;
10823;SDS011;39116;59.332;18.034;2024-03-23T08:17:05;18.10;;;4.07;;
10823;SDS011;39116;59.332;18.034;2024-03-23T08:19:26;15.20;;;3.35;;
10823;SDS011;39116;59.332;18.034;2024-03-23T08:21:47;19.38;;;4.78;;
10823;SDS011;39116;59.332;18.034;2024-03-23T08:24:09;17.75;;;3.40;;
10823;SDS011;39116;59.332;18.034;2024-03-23T08:26:29;20.15;;;3.47;;
10823;SDS011;39116;59.332;18.034;2024-03-23T08:28:52;19.20;;;3.80;;
10823;SDS011;39116;59.332;18.034;2024-03-23T08:31:13;16.00;;;3.60;;
10823;SDS011;39116;59.332;18.034;2024-03-23T08:33:35;11.00;;;3.00;;
10823;SDS011;39116;59.332;18.034;2024-03-23T08:35:56;16.45;;;3.35;;
10823;SDS011;39116;59.332;18.034;2024-03-23T08:38:18;16.23;;;3.70;;
10823;SDS011;39116;59.332;18.034;2024-03-23T08:40:39;18.73;;;4.18;;
10823;SDS011;39116;59.332;18.034;2024-03-23T08:43:00;21.65;;;4.07;;
10823;SDS011;39116;59.332;18.034;2024-03-23T08:45:23;18.85;;;3.70;;
10823;SDS011;39116;59.332;18.034;2024-03-23T08:47:45;15.88;;;3.63;;
10823;SDS011;39116;59.332;18.034;2024-03-23T08:50:07;18.30;;;3.58;;
10823;SDS011;39116;59.332;18.034;2024-03-23T08:52:28;12.75;;;3.60;;
10823;SDS011;39116;59.332;18.034;2024-03-23T08:54:50;13.85;;;3.35;;
10823;SDS011;39116;59.332;18.034;2024-03-23T08:57:10;13.82;;;3.78;;
10823;SDS011;39116;59.332;18.034;2024-03-23T08:59:32;21.20;;;3.83;;
10823;SDS011;39116;59.332;18.034;2024-03-23T09:01:54;14.10;;;3.33;;
10823;SDS011;39116;59.332;18.034;2024-03-23T09:04:16;15.43;;;2.97;;
10823;SDS011;39116;59.332;18.034;2024-03-23T09:06:36;17.35;;;3.33;;
10823;SDS011;39116;59.332;18.034;2024-03-23T09:08:58;13.90;;;4.25;;
10823;SDS011;39116;59.332;18.034;2024-03-23T09:11:18;21.52;;;3.92;;
10823;SDS011;39116;59.332;18.034;2024-03-23T09:13:40;17.02;;;3.33;;
10823;SDS011;39116;59.332;18.034;2024-03-23T09:16:02;14.07;;;3.33;;
10823;SDS011;39116;59.332;18.034;2024-03-23T09:18:25;12.73;;;3.92;;
10823;SDS011;39116;59.332;18.034;2024-03-23T09:20:45;15.60;;;3.67;;
10823;SDS011;39116;59.332;18.034;2024-03-23T09:23:07;12.75;;;3.20;;
10823;SDS011;39116;59.332;18.034;2024-03-23T09:25:27;14.32;;;3.55;;
10823;SDS011;39116;59.332;18.034;2024-03-23T09:27:49;16.08;;;3.65;;
10823;SDS011;39116;59.332;18.034;2024-03-23T09:30:10;15.68;;;3.67;;
10823;SDS011;39116;59.332;18.034;2024-03-23T09:32:32;14.02;;;3.45;;
10823;SDS011;39116;59.332;18.034;2024-03-23T09:34:54;13.23;;;3.33;;
10823;SDS011;39116;59.332;18.034;2024-03-23T09:37:16;17.15;;;3.72;;
10823;SDS011;39116;59.332;18.034;2024-03-23T09:39:36;14.13;;;4.10;;
10823;SDS011;39116;59.332;18.034;2024-03-23T09:41:58;17.35;;;3.95;;
10823;SDS011;39116;59.332;18.034;2024-03-23T09:44:19;15.25;;;3.10;;
10823;SDS011;39116;59.332;18.034;2024-03-23T09:46:40;18.23;;;3.95;;
10823;SDS011;39116;59.332;18.034;2024-03-23T09:49:01;14.25;;;3.60;;
10823;SDS011;39116;59.332;18.034;2024-03-23T09:51:26;18.55;;;3.92;;
10823;SDS011;39116;59.332;18.034;2024-03-23T09:53:46;15.25;;;3.55;;
10823;SDS011;39116;59.332;18.034;2024-03-23T09:56:08;12.52;;;3.25;;
10823;SDS011;39116;59.332;18.034;2024-03-23T09:58:29;19.25;;;3.63;;
10823;SDS011;39116;59.332;18.034;2024-03-23T10:00:52;18.05;;;3.78;;
10823;SDS011;39116;59.332;18.034;2024-03-23T10:03:12;16.55;;;3.20;;
10823;SDS011;39116;59.332;18.034;2024-03-23T10:05:34;19.60;;;3.75;;
10823;SDS011;39116;59.332;18.034;2024-03-23T10:07:56;19.13;;;4.03;;
10823;SDS011;39116;59.332;18.034;2024-03-23T10:10:18;16.13;;;4.18;;
10823;SDS011;39116;59.332;18.034;2024-03-23T10:12:43;16.75;;;3.80;;
10823;SDS011;39116;59.332;18.034;2024-03-23T10:15:05;17.73;;;3.75;;
10823;SDS011;39116;59.332;18.034;2024-03-23T10:17:35;16.23;;;3.53;;
10823;SDS011;39116;59.332;18.034;2024-03-23T10:19:59;18.40;;;4.25;;
10823;SDS011;39116;59.332;18.034;2024-03-23T10:22:22;16.98;;;3.70;;
10823;SDS011;39116;59.332;18.034;2024-03-23T10:24:46;21.25;;;3.67;;
10823;SDS011;39116;59.332;18.034;2024-03-23T10:27:06;13.88;;;3.42;;
10823;SDS011;39116;59.332;18.034;2024-03-23T10:29:28;15.95;;;3.35;;
10823;SDS011;39116;59.332;18.034;2024-03-23T10:31:49;13.68;;;3.70;;
10823;SDS011;39116;59.332;18.034;2024-03-23T10:34:12;10.68;;;2.75;;
10823;SDS011;39116;59.332;18.034;2024-03-23T10:36:32;19.65;;;4.35;;
10823;SDS011;39116;59.332;18.034;2024-03-23T10:38:55;22.60;;;3.78;;
10823;SDS011;39116;59.332;18.034;2024-03-23T10:41:17;12.85;;;2.90;;
10823;SDS011;39116;59.332;18.034;2024-03-23T10:43:39;20.50;;;3.70;;
10823;SDS011;39116;59.332;18.034;2024-03-23T10:46:00;15.05;;;3.65;;
10823;SDS011;39116;59.332;18.034;2024-03-23T10:48:21;14.00;;;3.58;;
10823;SDS011;39116;59.332;18.034;2024-03-23T10:50:42;12.80;;;3.50;;
10823;SDS011;39116;59.332;18.034;2024-03-23T10:53:03;13.07;;;3.22;;
10823;SDS011;39116;59.332;18.034;2024-03-23T10:55:24;13.77;;;3.03;;
10823;SDS011;39116;59.332;18.034;2024-03-23T10:57:49;18.42;;;3.92;;
10823;SDS011;39116;59.332;18.034;2024-03-23T11:00:11;15.73;;;3.67;;
10823;SDS011;39116;59.332;18.034;2024-03-23T11:02:34;13.85;;;3.03;;
10823;SDS011;39116;59.332;18.034;2024-03-23T11:04:55;17.45;;;3.42;;
10823;SDS011;39116;59.332;18.034;2024-03-23T11:07:31;23.58;;;5.88;;
10823;SDS011;39116;59.332;18.034;2024-03-23T11:09:52;19.17;;;4.28;;
10823;SDS011;39116;59.332;18.034;2024-03-23T11:12:26;15.48;;;3.45;;
10823;SDS011;39116;59.332;18.034;2024-03-23T11:14:48;15.85;;;3.20;;
10823;SDS011;39116;59.332;18.034;2024-03-23T11:17:10;20.48;;;3.72;;
10823;SDS011;39116;59.332;18.034;2024-03-23T11:19:34;13.88;;;3.05;;
10823;SDS011;39116;59.332;18.034;2024-03-23T11:21:56;13.52;;;3.35;;
10823;SDS011;39116;59.332;18.034;2024-03-23T11:24:17;13.23;;;2.60;;
10823;SDS011;39116;59.332;18.034;2024-03-23T11:26:38;10.35;;;3.50;;
10823;SDS011;39116;59.332;18.034;2024-03-23T11:29:08;14.63;;;3.92;;
10823;SDS011;39116;59.332;18.034;2024-03-23T11:31:31;14.13;;;3.25;;
10823;SDS011;39116;59.332;18.034;2024-03-23T11:34:01;13.85;;;3.00;;
10823;SDS011;39116;59.332;18.034;2024-03-23T11:36:23;10.80;;;3.13;;
10823;SDS011;39116;59.332;18.034;2024-03-23T11:38:44;10.35;;;2.42;;
10823;SDS011;39116;59.332;18.034;2024-03-23T11:41:06;11.57;;;2.78;;
10823;SDS011;39116;59.332;18.034;2024-03-23T11:43:27;10.15;;;2.80;;
10823;SDS011;39116;59.332;18.034;2024-03-23T11:45:50;15.15;;;3.15;;
10823;SDS011;39116;59.332;18.034;2024-03-23T11:48:14;14.32;;;3.42;;
10823;SDS011;39116;59.332;18.034;2024-03-23T11:50:38;11.20;;;2.88;;
10823;SDS011;39116;59.332;18.034;2024-03-23T11:53:12;12.05;;;2.88;;
10823;SDS011;39116;59.332;18.034;2024-03-23T11:55:43;9.02;;;2.50;;
10823;SDS011;39116;59.332;18.034;2024-03-23T11:58:04;16.45;;;3.42;;
10823;SDS011;39116;59.332;18.034;2024-03-23T12:00:26;13.38;;;2.80;;
10823;SDS011;39116;59.332;18.034;2024-03-23T12:02:47;15.00;;;3.17;;
10823;SDS011;39116;59.332;18.034;2024-03-23T12:05:15;13.15;;;2.95;;
10823;SDS011;39116;59.332;18.034;2024-03-23T12:07:36;13.80;;;3.38;;
10823;SDS011;39116;59.332;18.034;2024-03-23T12:10:03;15.63;;;3.17;;
10823;SDS011;39116;59.332;18.034;2024-03-23T12:12:24;13.63;;;3.20;;
10823;SDS011;39116;59.332;18.034;2024-03-23T12:15:01;10.48;;;3.20;;
10823;SDS011;39116;59.332;18.034;2024-03-23T12:17:22;12.43;;;3.13;;
10823;SDS011;39116;59.332;18.034;2024-03-23T12:19:44;9.70;;;2.63;;
10823;SDS011;39116;59.332;18.034;2024-03-23T12:22:07;12.50;;;3.33;;
10823;SDS011;39116;59.332;18.034;2024-03-23T12:24:29;10.27;;;2.70;;
10823;SDS011;39116;59.332;18.034;2024-03-23T12:26:49;12.18;;;2.95;;
10823;SDS011;39116;59.332;18.034;2024-03-23T12:29:11;9.75;;;2.67;;
10823;SDS011;39116;59.332;18.034;2024-03-23T12:31:32;13.90;;;3.35;;
10823;SDS011;39116;59.332;18.034;2024-03-23T12:33:55;14.70;;;3.35;;
10823;SDS011;39116;59.332;18.034;2024-03-23T12:36:16;11.95;;;2.90;;
10823;SDS011;39116;59.332;18.034;2024-03-23T12:38:39;11.15;;;2.63;;
10823;SDS011;39116;59.332;18.034;2024-03-23T12:40:59;11.00;;;3.20;;
10823;SDS011;39116;59.332;18.034;2024-03-23T12:43:21;11.85;;;2.90;;
10823;SDS011;39116;59.332;18.034;2024-03-23T12:45:45;10.23;;;3.03;;
10823;SDS011;39116;59.332;18.034;2024-03-23T12:48:07;13.05;;;2.90;;
10823;SDS011;39116;59.332;18.034;2024-03-23T12:50:28;14.23;;;2.97;;
10823;SDS011;39116;59.332;18.034;2024-03-23T12:52:49;10.73;;;3.20;;
10823;SDS011;39116;59.332;18.034;2024-03-23T12:55:11;14.40;;;3.15;;
10823;SDS011;39116;59.332;18.034;2024-03-23T12:57:33;10.27;;;2.78;;
10823;SDS011;39116;59.332;18.034;2024-03-23T12:59:54;8.05;;;2.92;;
10823;SDS011;39116;59.332;18.034;2024-03-23T13:02:17;16.45;;;3.60;;
10823;SDS011;39116;59.332;18.034;2024-03-23T13:04:37;14.07;;;3.38;;
10823;SDS011;39116;59.332;18.034;2024-03-23T13:06:59;9.70;;;2.72;;
10823;SDS011;39116;59.332;18.034;2024-03-23T13:09:19;14.18;;;3.13;;
10823;SDS011;39116;59.332;18.034;2024-03-23T13:11:42;10.70;;;2.60;;
10823;SDS011;39116;59.332;18.034;2024-03-23T13:14:03;13.45;;;2.97;;
10823;SDS011;39116;59.332;18.034;2024-03-23T13:16:25;12.43;;;2.22;;
10823;SDS011;39116;59.332;18.034;2024-03-23T13:18:45;10.48;;;2.47;;
10823;SDS011;39116;59.332;18.034;2024-03-23T13:21:07;8.45;;;2.67;;
10823;SDS011;39116;59.332;18.034;2024-03-23T13:23:28;10.38;;;2.50;;
10823;SDS011;39116;59.332;18.034;2024-03-23T13:25:50;13.43;;;3.28;;
10823;SDS011;39116;59.332;18.034;2024-03-23T13:28:14;10.00;;;3.33;;
10823;SDS011;39116;59.332;18.034;2024-03-23T13:30:38;13.07;;;3.22;;
10823;SDS011;39116;59.332;18.034;2024-03-23T13:32:58;12.85;;;2.80;;
10823;SDS011;39116;59.332;18.034;2024-03-23T13:35:20;12.75;;;1.90;;
10823;SDS011;39116;59.332;18.034;2024-03-23T13:37:40;6.63;;;1.50;;
10823;SDS011;39116;59.332;18.034;2024-03-23T13:40:03;3.70;;;1.17;;
10823;SDS011;39116;59.332;18.034;2024-03-23T13:42:24;4.63;;;1.33;;
10823;SDS011;39116;59.332;18.034;2024-03-23T13:44:48;4.53;;;1.25;;
10823;SDS011;39116;59.332;18.034;2024-03-23T13:47:10;6.25;;;1.10;;
10823;SDS011;39116;59.332;18.034;2024-03-23T13:49:32;4.60;;;1.52;;
10823;SDS011;39116;59.332;18.034;2024-03-23T13:51:53;5.78;;;1.33;;
10823;SDS011;39116;59.332;18.034;2024-03-23T13:54:14;5.38;;;1.20;;
10823;SDS011;39116;59.332;18.034;2024-03-23T13:56:35;7.22;;;1.60;;
10823;SDS011;39116;59.332;18.034;2024-03-23T13:58:56;5.68;;;1.50;;
10823;SDS011;39116;59.332;18.034;2024-03-23T14:01:19;5.10;;;1.60;;
10823;SDS011;39116;59.332;18.034;2024-03-23T14:03:41;8.98;;;1.70;;
10823;SDS011;39116;59.332;18.034;2024-03-23T14:06:02;8.20;;;1.70;;
10823;SDS011;39116;59.332;18.034;2024-03-23T14:08:23;7.05;;;1.77;;
10823;SDS011;39116;59.332;18.034;2024-03-23T14:10:44;7.55;;;1.85;;
10823;SDS011;39116;59.332;18.034;2024-03-23T14:13:06;10.40;;;1.45;;
10823;SDS011;39116;59.332;18.034;2024-03-23T14:15:26;4.80;;;1.20;;
10823;SDS011;39116;59.332;18.034;2024-03-23T14:17:50;3.75;;;1.60;;
10823;SDS011;39116;59.332;18.034;2024-03-23T14:20:11;5.70;;;1.75;;
10823;SDS011;39116;59.332;18.034;2024-03-23T14:22:33;9.25;;;1.98;;
10823;SDS011;39116;59.332;18.034;2024-03-23T14:24:55;10.40;;;2.10;;
10823;SDS011;39116;59.332;18.034;2024-03-23T14:27:15;9.90;;;2.15;;
10823;SDS011;39116;59.332;18.034;2024-03-23T14:29:38;4.75;;;1.60;;
10823;SDS011;39116;59.332;18.034;2024-03-23T14:31:58;6.63;;;2.03;;
10823;SDS011;39116;59.332;18.034;2024-03-23T14:34:22;4.50;;;1.80;;
10823;SDS011;39116;59.332;18.034;2024-03-23T14:36:42;7.22;;;1.88;;
10823;SDS011;39116;59.332;18.034;2024-03-23T14:39:05;7.15;;;1.98;;
10823;SDS011;39116;59.332;18.034;2024-03-23T14:41:25;4.93;;;1.75;;
10823;SDS011;39116;59.332;18.034;2024-03-23T14:43:47;5.28;;;1.58;;
10823;SDS011;39116;59.332;18.034;2024-03-23T14:46:10;7.25;;;1.73;;
10823;SDS011;39116;59.332;18.034;2024-03-23T14:48:31;6.38;;;2.00;;